sensor_id;sensor_type;location;lat;lon;timestamp;P1;durP1;ratioP1;P2;durP2;ratioP2
65572;SDS011;52214;50.940;13.996;2023-02-28T00:02:19;4.03;;;1.57;;
65572;SDS011;52214;50.940;13.996;2023-02-28T00:04:45;3.88;;;1.48;;
65572;SDS011;52214;50.940;13.996;2023-02-28T00:07:18;5.07;;;1.73;;
65572;SDS011;52214;50.940;13.996;2023-02-28T00:09:44;4.63;;;1.23;;
65572;SDS011;52214;50.940;13.996;2023-02-28T00:12:09;3.65;;;1.20;;
65572;SDS011;52214;50.940;13.996;2023-02-28T00:14:36;4.10;;;1.23;;
65572;SDS011;52214;50.940;13.996;2023-02-28T00:17:02;4.70;;;1.30;;
65572;SDS011;52214;50.940;13.996;2023-02-28T00:19:27;4.83;;;1.50;;
65572;SDS011;52214;50.940;13.996;2023-02-28T00:21:53;3.88;;;1.27;;
65572;SDS011;52214;50.940;13.996;2023-02-28T00:24:19;4.18;;;1.40;;
65572;SDS011;52214;50.940;13.996;2023-02-28T00:26:45;5.00;;;1.30;;
65572;SDS011;52214;50.940;13.996;2023-02-28T00:29:10;3.97;;;1.47;;
65572;SDS011;52214;50.940;13.996;2023-02-28T00:31:36;4.53;;;1.30;;
65572;SDS011;52214;50.940;13.996;2023-02-28T00:34:01;4.27;;;1.70;;
65572;SDS011;52214;50.940;13.996;2023-02-28T00:36:27;4.63;;;1.57;;
65572;SDS011;52214;50.940;13.996;2023-02-28T00:38:52;4.75;;;1.48;;
65572;SDS011;52214;50.940;13.996;2023-02-28T00:41:18;3.53;;;1.40;;
65572;SDS011;52214;50.940;13.996;2023-02-28T00:43:44;5.07;;;1.60;;
65572;SDS011;52214;50.940;13.996;2023-02-28T00:46:09;3.85;;;1.40;;
65572;SDS011;52214;50.940;13.996;2023-02-28T00:48:35;4.20;;;1.37;;
65572;SDS011;52214;50.940;13.996;2023-02-28T00:51:01;4.63;;;1.58;;
65572;SDS011;52214;50.940;13.996;2023-02-28T00:53:27;4.82;;;1.50;;
65572;SDS011;52214;50.940;13.996;2023-02-28T00:55:54;4.47;;;1.50;;
65572;SDS011;52214;50.940;13.996;2023-02-28T00:58:20;4.33;;;1.70;;
65572;SDS011;52214;50.940;13.996;2023-02-28T01:00:45;3.83;;;1.30;;
65572;SDS011;52214;50.940;13.996;2023-02-28T01:03:14;3.67;;;1.30;;
65572;SDS011;52214;50.940;13.996;2023-02-28T01:05:41;4.68;;;1.40;;
65572;SDS011;52214;50.940;13.996;2023-02-28T01:08:07;4.68;;;1.80;;
65572;SDS011;52214;50.940;13.996;2023-02-28T01:10:32;4.53;;;1.50;;
65572;SDS011;52214;50.940;13.996;2023-02-28T01:12:59;4.10;;;1.20;;
65572;SDS011;52214;50.940;13.996;2023-02-28T01:15:24;3.40;;;1.37;;
65572;SDS011;52214;50.940;13.996;2023-02-28T01:17:50;5.97;;;1.67;;
65572;SDS011;52214;50.940;13.996;2023-02-28T01:20:15;5.10;;;1.50;;
65572;SDS011;52214;50.940;13.996;2023-02-28T01:22:41;5.27;;;1.70;;
65572;SDS011;52214;50.940;13.996;2023-02-28T01:25:07;5.43;;;1.70;;
65572;SDS011;52214;50.940;13.996;2023-02-28T01:27:33;4.90;;;1.63;;
65572;SDS011;52214;50.940;13.996;2023-02-28T01:29:58;5.20;;;1.80;;
65572;SDS011;52214;50.940;13.996;2023-02-28T01:32:24;4.00;;;1.50;;
65572;SDS011;52214;50.940;13.996;2023-02-28T01:34:50;5.63;;;1.83;;
65572;SDS011;52214;50.940;13.996;2023-02-28T01:37:15;4.75;;;1.80;;
65572;SDS011;52214;50.940;13.996;2023-02-28T01:39:41;4.80;;;1.55;;
65572;SDS011;52214;50.940;13.996;2023-02-28T01:42:08;5.30;;;1.60;;
65572;SDS011;52214;50.940;13.996;2023-02-28T01:52:18;5.63;;;1.65;;
65572;SDS011;52214;50.940;13.996;2023-02-28T01:54:49;5.07;;;1.60;;
65572;SDS011;52214;50.940;13.996;2023-02-28T01:57:18;6.57;;;1.92;;
65572;SDS011;52214;50.940;13.996;2023-02-28T01:59:48;6.55;;;1.70;;
65572;SDS011;52214;50.940;13.996;2023-02-28T02:02:18;6.18;;;2.20;;
65572;SDS011;52214;50.940;13.996;2023-02-28T02:04:51;5.37;;;1.90;;
65572;SDS011;52214;50.940;13.996;2023-02-28T02:07:20;6.07;;;1.85;;
65572;SDS011;52214;50.940;13.996;2023-02-28T02:09:48;5.15;;;1.63;;
65572;SDS011;52214;50.940;13.996;2023-02-28T02:12:24;5.70;;;1.60;;
65572;SDS011;52214;50.940;13.996;2023-02-28T02:15:09;5.05;;;1.90;;
65572;SDS011;52214;50.940;13.996;2023-02-28T02:17:49;4.90;;;1.70;;
65572;SDS011;52214;50.940;13.996;2023-02-28T02:36:33;5.07;;;1.50;;
65572;SDS011;52214;50.940;13.996;2023-02-28T02:39:06;6.50;;;2.07;;
65572;SDS011;52214;50.940;13.996;2023-02-28T02:41:56;7.40;;;2.30;;
65572;SDS011;52214;50.940;13.996;2023-02-28T02:44:27;4.72;;;1.60;;
65572;SDS011;52214;50.940;13.996;2023-02-28T02:47:04;4.05;;;1.60;;
65572;SDS011;52214;50.940;13.996;2023-02-28T02:49:36;5.47;;;2.03;;
65572;SDS011;52214;50.940;13.996;2023-02-28T02:52:07;7.57;;;2.10;;
65572;SDS011;52214;50.940;13.996;2023-02-28T02:54:35;7.53;;;2.13;;
65572;SDS011;52214;50.940;13.996;2023-02-28T02:57:05;5.13;;;1.90;;
65572;SDS011;52214;50.940;13.996;2023-02-28T02:59:35;5.65;;;1.95;;
65572;SDS011;52214;50.940;13.996;2023-02-28T03:02:04;5.00;;;1.88;;
65572;SDS011;52214;50.940;13.996;2023-02-28T03:04:36;5.47;;;1.90;;
65572;SDS011;52214;50.940;13.996;2023-02-28T03:07:07;4.80;;;1.55;;
65572;SDS011;52214;50.940;13.996;2023-02-28T03:09:33;4.28;;;1.67;;
65572;SDS011;52214;50.940;13.996;2023-02-28T03:12:01;4.57;;;1.95;;
65572;SDS011;52214;50.940;13.996;2023-02-28T03:26:03;5.13;;;2.00;;
65572;SDS011;52214;50.940;13.996;2023-02-28T03:28:40;4.90;;;1.37;;
65572;SDS011;52214;50.940;13.996;2023-02-28T03:31:17;4.05;;;1.40;;
65572;SDS011;52214;50.940;13.996;2023-02-28T03:34:01;5.40;;;1.73;;
65572;SDS011;52214;50.940;13.996;2023-02-28T03:36:33;6.10;;;1.40;;
65572;SDS011;52214;50.940;13.996;2023-02-28T03:39:11;5.93;;;1.50;;
65572;SDS011;52214;50.940;13.996;2023-02-28T03:42:00;4.20;;;1.53;;
65572;SDS011;52214;50.940;13.996;2023-02-28T03:44:33;4.63;;;1.40;;
65572;SDS011;52214;50.940;13.996;2023-02-28T03:47:04;4.10;;;1.65;;
65572;SDS011;52214;50.940;13.996;2023-02-28T03:49:46;4.88;;;1.63;;
65572;SDS011;52214;50.940;13.996;2023-02-28T03:52:14;5.93;;;1.60;;
65572;SDS011;52214;50.940;13.996;2023-02-28T03:54:44;4.90;;;1.70;;
65572;SDS011;52214;50.940;13.996;2023-02-28T03:57:16;4.10;;;1.50;;
65572;SDS011;52214;50.940;13.996;2023-02-28T03:59:54;5.35;;;1.80;;
65572;SDS011;52214;50.940;13.996;2023-02-28T04:02:24;5.20;;;1.90;;
65572;SDS011;52214;50.940;13.996;2023-02-28T04:04:50;4.20;;;1.50;;
65572;SDS011;52214;50.940;13.996;2023-02-28T04:07:16;5.32;;;1.85;;
65572;SDS011;52214;50.940;13.996;2023-02-28T04:09:42;4.80;;;1.60;;
65572;SDS011;52214;50.940;13.996;2023-02-28T04:12:08;5.32;;;1.70;;
65572;SDS011;52214;50.940;13.996;2023-02-28T04:14:34;4.35;;;1.40;;
65572;SDS011;52214;50.940;13.996;2023-02-28T04:17:00;4.57;;;1.60;;
65572;SDS011;52214;50.940;13.996;2023-02-28T04:19:25;4.53;;;1.67;;
65572;SDS011;52214;50.940;13.996;2023-02-28T04:21:52;6.25;;;1.80;;
65572;SDS011;52214;50.940;13.996;2023-02-28T04:24:20;6.20;;;1.70;;
65572;SDS011;52214;50.940;13.996;2023-02-28T04:26:49;4.50;;;1.60;;
65572;SDS011;52214;50.940;13.996;2023-02-28T04:29:21;4.03;;;1.63;;
65572;SDS011;52214;50.940;13.996;2023-02-28T04:31:49;5.68;;;1.90;;
65572;SDS011;52214;50.940;13.996;2023-02-28T04:34:15;4.10;;;1.70;;
65572;SDS011;52214;50.940;13.996;2023-02-28T04:36:41;5.18;;;1.80;;
65572;SDS011;52214;50.940;13.996;2023-02-28T04:39:07;5.03;;;1.97;;
65572;SDS011;52214;50.940;13.996;2023-02-28T04:41:34;5.32;;;2.10;;
65572;SDS011;52214;50.940;13.996;2023-02-28T04:44:00;3.70;;;1.27;;
65572;SDS011;52214;50.940;13.996;2023-02-28T04:46:26;4.40;;;1.67;;
65572;SDS011;52214;50.940;13.996;2023-02-28T04:48:51;5.68;;;1.65;;
65572;SDS011;52214;50.940;13.996;2023-02-28T04:51:18;4.57;;;1.60;;
65572;SDS011;52214;50.940;13.996;2023-02-28T04:53:45;3.90;;;1.48;;
65572;SDS011;52214;50.940;13.996;2023-02-28T04:56:12;4.43;;;1.27;;
65572;SDS011;52214;50.940;13.996;2023-02-28T04:58:39;3.78;;;1.50;;
65572;SDS011;52214;50.940;13.996;2023-02-28T05:01:14;4.40;;;1.60;;
65572;SDS011;52214;50.940;13.996;2023-02-28T05:03:43;4.15;;;1.50;;
65572;SDS011;52214;50.940;13.996;2023-02-28T05:06:09;3.53;;;1.30;;
65572;SDS011;52214;50.940;13.996;2023-02-28T05:08:37;4.05;;;1.33;;
65572;SDS011;52214;50.940;13.996;2023-02-28T05:11:03;4.22;;;1.50;;
65572;SDS011;52214;50.940;13.996;2023-02-28T05:13:29;4.40;;;1.35;;
65572;SDS011;52214;50.940;13.996;2023-02-28T05:15:55;4.33;;;1.50;;
65572;SDS011;52214;50.940;13.996;2023-02-28T05:18:21;3.55;;;1.42;;
65572;SDS011;52214;50.940;13.996;2023-02-28T05:20:47;4.22;;;1.38;;
65572;SDS011;52214;50.940;13.996;2023-02-28T05:23:13;3.90;;;1.40;;
65572;SDS011;52214;50.940;13.996;2023-02-28T05:25:40;5.28;;;1.77;;
65572;SDS011;52214;50.940;13.996;2023-02-28T05:28:06;5.65;;;1.70;;
65572;SDS011;52214;50.940;13.996;2023-02-28T05:30:32;4.10;;;1.57;;
65572;SDS011;52214;50.940;13.996;2023-02-28T05:32:58;4.20;;;1.45;;
65572;SDS011;52214;50.940;13.996;2023-02-28T05:35:24;4.38;;;1.40;;
65572;SDS011;52214;50.940;13.996;2023-02-28T05:37:50;4.50;;;1.50;;
65572;SDS011;52214;50.940;13.996;2023-02-28T05:40:16;4.57;;;1.63;;
65572;SDS011;52214;50.940;13.996;2023-02-28T05:42:42;4.22;;;1.77;;
65572;SDS011;52214;50.940;13.996;2023-02-28T05:45:08;4.40;;;1.57;;
65572;SDS011;52214;50.940;13.996;2023-02-28T05:47:35;4.20;;;1.23;;
65572;SDS011;52214;50.940;13.996;2023-02-28T05:50:01;4.40;;;1.38;;
65572;SDS011;52214;50.940;13.996;2023-02-28T05:52:27;5.00;;;1.60;;
65572;SDS011;52214;50.940;13.996;2023-02-28T05:54:55;5.10;;;1.65;;
65572;SDS011;52214;50.940;13.996;2023-02-28T05:57:21;4.60;;;1.67;;
65572;SDS011;52214;50.940;13.996;2023-02-28T05:59:47;4.20;;;1.70;;
65572;SDS011;52214;50.940;13.996;2023-02-28T06:02:13;6.83;;;1.80;;
65572;SDS011;52214;50.940;13.996;2023-02-28T06:04:40;3.63;;;1.50;;
65572;SDS011;52214;50.940;13.996;2023-02-28T06:07:07;4.57;;;1.40;;
65572;SDS011;52214;50.940;13.996;2023-02-28T06:09:34;3.90;;;1.37;;
65572;SDS011;52214;50.940;13.996;2023-02-28T06:12:01;4.18;;;1.35;;
65572;SDS011;52214;50.940;13.996;2023-02-28T06:14:30;4.60;;;1.40;;
65572;SDS011;52214;50.940;13.996;2023-02-28T06:16:58;4.80;;;1.10;;
65572;SDS011;52214;50.940;13.996;2023-02-28T06:19:24;4.75;;;1.77;;
65572;SDS011;52214;50.940;13.996;2023-02-28T06:21:51;3.97;;;1.50;;
65572;SDS011;52214;50.940;13.996;2023-02-28T06:24:21;4.28;;;1.50;;
65572;SDS011;52214;50.940;13.996;2023-02-28T06:26:53;4.90;;;1.55;;
65572;SDS011;52214;50.940;13.996;2023-02-28T06:29:19;3.78;;;1.35;;
65572;SDS011;52214;50.940;13.996;2023-02-28T06:31:45;4.23;;;1.40;;
65572;SDS011;52214;50.940;13.996;2023-02-28T06:34:11;5.00;;;1.50;;
65572;SDS011;52214;50.940;13.996;2023-02-28T06:36:37;4.28;;;1.60;;
65572;SDS011;52214;50.940;13.996;2023-02-28T06:39:04;4.45;;;1.40;;
65572;SDS011;52214;50.940;13.996;2023-02-28T06:41:30;4.67;;;1.47;;
65572;SDS011;52214;50.940;13.996;2023-02-28T06:43:56;4.18;;;1.35;;
65572;SDS011;52214;50.940;13.996;2023-02-28T06:46:22;5.03;;;1.33;;
65572;SDS011;52214;50.940;13.996;2023-02-28T06:48:48;4.15;;;1.40;;
65572;SDS011;52214;50.940;13.996;2023-02-28T06:51:15;4.00;;;1.60;;
65572;SDS011;52214;50.940;13.996;2023-02-28T06:53:45;4.60;;;1.60;;
65572;SDS011;52214;50.940;13.996;2023-02-28T06:56:12;4.43;;;1.52;;
65572;SDS011;52214;50.940;13.996;2023-02-28T06:58:40;5.60;;;2.03;;
65572;SDS011;52214;50.940;13.996;2023-02-28T07:01:07;4.55;;;1.45;;
65572;SDS011;52214;50.940;13.996;2023-02-28T07:03:34;4.23;;;1.30;;
65572;SDS011;52214;50.940;13.996;2023-02-28T07:06:02;4.43;;;1.55;;
65572;SDS011;52214;50.940;13.996;2023-02-28T07:08:29;4.15;;;1.50;;
65572;SDS011;52214;50.940;13.996;2023-02-28T07:10:54;4.07;;;1.52;;
65572;SDS011;52214;50.940;13.996;2023-02-28T07:13:23;3.37;;;1.33;;
65572;SDS011;52214;50.940;13.996;2023-02-28T07:15:58;4.90;;;1.65;;
65572;SDS011;52214;50.940;13.996;2023-02-28T07:18:25;4.80;;;1.60;;
65572;SDS011;52214;50.940;13.996;2023-02-28T07:20:51;4.10;;;1.60;;
65572;SDS011;52214;50.940;13.996;2023-02-28T07:23:17;4.15;;;1.58;;
65572;SDS011;52214;50.940;13.996;2023-02-28T07:25:43;4.07;;;1.52;;
65572;SDS011;52214;50.940;13.996;2023-02-28T07:28:10;3.75;;;1.45;;
65572;SDS011;52214;50.940;13.996;2023-02-28T07:30:38;4.27;;;1.77;;
65572;SDS011;52214;50.940;13.996;2023-02-28T07:33:10;4.50;;;1.52;;
65572;SDS011;52214;50.940;13.996;2023-02-28T07:35:36;3.88;;;1.50;;
65572;SDS011;52214;50.940;13.996;2023-02-28T07:38:02;4.00;;;1.52;;
65572;SDS011;52214;50.940;13.996;2023-02-28T07:40:28;4.05;;;1.55;;
65572;SDS011;52214;50.940;13.996;2023-02-28T07:42:54;4.35;;;1.70;;
65572;SDS011;52214;50.940;13.996;2023-02-28T07:45:19;4.03;;;1.47;;
65572;SDS011;52214;50.940;13.996;2023-02-28T07:47:45;3.30;;;1.27;;
65572;SDS011;52214;50.940;13.996;2023-02-28T07:50:12;4.05;;;1.63;;
65572;SDS011;52214;50.940;13.996;2023-02-28T07:52:41;4.20;;;1.50;;
65572;SDS011;52214;50.940;13.996;2023-02-28T07:55:08;4.07;;;1.50;;
65572;SDS011;52214;50.940;13.996;2023-02-28T07:57:34;3.88;;;1.45;;
65572;SDS011;52214;50.940;13.996;2023-02-28T08:00:01;3.63;;;1.35;;
65572;SDS011;52214;50.940;13.996;2023-02-28T08:02:28;3.72;;;1.38;;
65572;SDS011;52214;50.940;13.996;2023-02-28T08:04:54;4.10;;;1.60;;
65572;SDS011;52214;50.940;13.996;2023-02-28T08:07:19;3.83;;;1.30;;
65572;SDS011;52214;50.940;13.996;2023-02-28T08:09:45;3.88;;;1.48;;
65572;SDS011;52214;50.940;13.996;2023-02-28T08:12:11;4.17;;;1.43;;
65572;SDS011;52214;50.940;13.996;2023-02-28T08:14:37;3.17;;;1.23;;
65572;SDS011;52214;50.940;13.996;2023-02-28T08:17:04;4.65;;;1.60;;
65572;SDS011;52214;50.940;13.996;2023-02-28T08:19:30;4.40;;;1.50;;
65572;SDS011;52214;50.940;13.996;2023-02-28T08:21:56;3.73;;;1.33;;
65572;SDS011;52214;50.940;13.996;2023-02-28T08:24:22;4.53;;;1.65;;
65572;SDS011;52214;50.940;13.996;2023-02-28T08:26:48;4.13;;;1.53;;
65572;SDS011;52214;50.940;13.996;2023-02-28T08:29:14;4.05;;;1.60;;
65572;SDS011;52214;50.940;13.996;2023-02-28T08:31:39;4.00;;;1.60;;
65572;SDS011;52214;50.940;13.996;2023-02-28T08:34:06;3.67;;;1.50;;
65572;SDS011;52214;50.940;13.996;2023-02-28T08:36:34;4.22;;;1.60;;
65572;SDS011;52214;50.940;13.996;2023-02-28T08:38:59;4.23;;;1.60;;
65572;SDS011;52214;50.940;13.996;2023-02-28T08:41:25;3.40;;;1.40;;
65572;SDS011;52214;50.940;13.996;2023-02-28T08:43:51;4.03;;;1.30;;
65572;SDS011;52214;50.940;13.996;2023-02-28T08:46:19;4.78;;;1.50;;
65572;SDS011;52214;50.940;13.996;2023-02-28T08:48:45;3.25;;;1.20;;
65572;SDS011;52214;50.940;13.996;2023-02-28T08:51:13;4.33;;;1.50;;
65572;SDS011;52214;50.940;13.996;2023-02-28T08:53:44;3.67;;;1.35;;
65572;SDS011;52214;50.940;13.996;2023-02-28T08:56:12;3.67;;;1.45;;
65572;SDS011;52214;50.940;13.996;2023-02-28T08:58:39;4.28;;;1.50;;
65572;SDS011;52214;50.940;13.996;2023-02-28T09:01:09;5.18;;;1.85;;
65572;SDS011;52214;50.940;13.996;2023-02-28T09:03:37;3.60;;;1.30;;
65572;SDS011;52214;50.940;13.996;2023-02-28T09:06:03;3.90;;;1.40;;
65572;SDS011;52214;50.940;13.996;2023-02-28T09:08:30;4.78;;;1.65;;
65572;SDS011;52214;50.940;13.996;2023-02-28T09:10:56;3.60;;;1.30;;
65572;SDS011;52214;50.940;13.996;2023-02-28T09:13:24;5.10;;;1.42;;
65572;SDS011;52214;50.940;13.996;2023-02-28T09:15:51;4.40;;;1.40;;
65572;SDS011;52214;50.940;13.996;2023-02-28T09:18:18;3.67;;;1.25;;
65572;SDS011;52214;50.940;13.996;2023-02-28T09:20:43;3.45;;;1.52;;
65572;SDS011;52214;50.940;13.996;2023-02-28T09:23:10;3.60;;;1.43;;
65572;SDS011;52214;50.940;13.996;2023-02-28T09:25:37;3.80;;;1.38;;
65572;SDS011;52214;50.940;13.996;2023-02-28T09:28:03;2.90;;;1.23;;
65572;SDS011;52214;50.940;13.996;2023-02-28T09:30:29;3.13;;;1.40;;
65572;SDS011;52214;50.940;13.996;2023-02-28T09:32:55;4.20;;;1.20;;
65572;SDS011;52214;50.940;13.996;2023-02-28T09:35:22;3.40;;;1.48;;
65572;SDS011;52214;50.940;13.996;2023-02-28T09:37:50;3.67;;;1.30;;
65572;SDS011;52214;50.940;13.996;2023-02-28T09:40:17;3.90;;;1.38;;
65572;SDS011;52214;50.940;13.996;2023-02-28T09:42:45;4.30;;;1.30;;
65572;SDS011;52214;50.940;13.996;2023-02-28T09:45:18;4.28;;;1.40;;
65572;SDS011;52214;50.940;13.996;2023-02-28T09:47:49;3.90;;;1.52;;
65572;SDS011;52214;50.940;13.996;2023-02-28T09:50:22;3.80;;;1.48;;
65572;SDS011;52214;50.940;13.996;2023-02-28T09:52:51;3.70;;;1.38;;
65572;SDS011;52214;50.940;13.996;2023-02-28T09:55:26;4.23;;;1.40;;
65572;SDS011;52214;50.940;13.996;2023-02-28T09:58:16;3.80;;;1.50;;
65572;SDS011;52214;50.940;13.996;2023-02-28T10:08:58;3.13;;;1.20;;
65572;SDS011;52214;50.940;13.996;2023-02-28T10:11:38;3.22;;;1.38;;
65572;SDS011;52214;50.940;13.996;2023-02-28T10:14:12;3.30;;;1.30;;
65572;SDS011;52214;50.940;13.996;2023-02-28T10:16:45;3.50;;;1.52;;
65572;SDS011;52214;50.940;13.996;2023-02-28T10:19:22;3.38;;;1.33;;
65572;SDS011;52214;50.940;13.996;2023-02-28T10:21:59;4.27;;;1.50;;
65572;SDS011;52214;50.940;13.996;2023-02-28T10:24:32;3.40;;;1.40;;
65572;SDS011;52214;50.940;13.996;2023-02-28T10:34:50;3.90;;;1.33;;
65572;SDS011;52214;50.940;13.996;2023-02-28T10:37:19;4.05;;;1.40;;
65572;SDS011;52214;50.940;13.996;2023-02-28T10:39:45;3.30;;;1.33;;
65572;SDS011;52214;50.940;13.996;2023-02-28T10:42:28;3.92;;;1.73;;
65572;SDS011;52214;50.940;13.996;2023-02-28T10:52:52;3.83;;;1.33;;
65572;SDS011;52214;50.940;13.996;2023-02-28T10:55:21;3.38;;;1.40;;
65572;SDS011;52214;50.940;13.996;2023-02-28T10:57:50;3.00;;;1.23;;
65572;SDS011;52214;50.940;13.996;2023-02-28T11:00:19;3.20;;;1.20;;
65572;SDS011;52214;50.940;13.996;2023-02-28T11:02:47;3.92;;;1.38;;
65572;SDS011;52214;50.940;13.996;2023-02-28T11:05:30;4.00;;;1.45;;
65572;SDS011;52214;50.940;13.996;2023-02-28T11:15:53;4.72;;;1.52;;
65572;SDS011;52214;50.940;13.996;2023-02-28T11:18:27;3.60;;;1.50;;
65572;SDS011;52214;50.940;13.996;2023-02-28T11:20:56;3.38;;;1.35;;
65572;SDS011;52214;50.940;13.996;2023-02-28T11:23:25;3.73;;;1.37;;
65572;SDS011;52214;50.940;13.996;2023-02-28T11:25:54;3.33;;;1.30;;
65572;SDS011;52214;50.940;13.996;2023-02-28T11:28:25;4.80;;;1.70;;
65572;SDS011;52214;50.940;13.996;2023-02-28T11:31:00;4.38;;;1.30;;
65572;SDS011;52214;50.940;13.996;2023-02-28T11:33:31;3.85;;;1.50;;
65572;SDS011;52214;50.940;13.996;2023-02-28T11:36:23;4.17;;;1.27;;
65572;SDS011;52214;50.940;13.996;2023-02-28T11:38:53;3.90;;;1.67;;
65572;SDS011;52214;50.940;13.996;2023-02-28T12:00:54;3.63;;;1.38;;
65572;SDS011;52214;50.940;13.996;2023-02-28T12:03:33;4.13;;;1.40;;
65572;SDS011;52214;50.940;13.996;2023-02-28T12:06:18;3.58;;;1.30;;
65572;SDS011;52214;50.940;13.996;2023-02-28T12:31:29;3.15;;;1.20;;
65572;SDS011;52214;50.940;13.996;2023-02-28T12:34:01;3.30;;;1.10;;
65572;SDS011;52214;50.940;13.996;2023-02-28T12:36:31;3.50;;;1.17;;
65572;SDS011;52214;50.940;13.996;2023-02-28T12:39:03;3.38;;;1.38;;
65572;SDS011;52214;50.940;13.996;2023-02-28T12:41:39;3.80;;;1.60;;
65572;SDS011;52214;50.940;13.996;2023-02-28T12:44:11;3.67;;;1.60;;
65572;SDS011;52214;50.940;13.996;2023-02-28T12:46:42;3.65;;;1.30;;
65572;SDS011;52214;50.940;13.996;2023-02-28T12:51:43;3.35;;;1.27;;
65572;SDS011;52214;50.940;13.996;2023-02-28T13:02:50;3.77;;;1.50;;
65572;SDS011;52214;50.940;13.996;2023-02-28T13:05:39;3.17;;;1.35;;
65572;SDS011;52214;50.940;13.996;2023-02-28T13:08:23;3.70;;;1.60;;
65572;SDS011;52214;50.940;13.996;2023-02-28T13:11:03;4.28;;;1.60;;
65572;SDS011;52214;50.940;13.996;2023-02-28T13:13:28;3.30;;;1.30;;
65572;SDS011;52214;50.940;13.996;2023-02-28T13:16:11;3.90;;;1.20;;
65572;SDS011;52214;50.940;13.996;2023-02-28T13:18:38;4.05;;;1.45;;
65572;SDS011;52214;50.940;13.996;2023-02-28T13:21:06;3.65;;;1.55;;
65572;SDS011;52214;50.940;13.996;2023-02-28T13:23:37;3.67;;;1.40;;
65572;SDS011;52214;50.940;13.996;2023-02-28T13:29:37;3.13;;;1.15;;
65572;SDS011;52214;50.940;13.996;2023-02-28T13:39:46;3.20;;;1.33;;
65572;SDS011;52214;50.940;13.996;2023-02-28T13:42:30;3.67;;;1.40;;
65572;SDS011;52214;50.940;13.996;2023-02-28T13:58:35;3.17;;;1.27;;
65572;SDS011;52214;50.940;13.996;2023-02-28T14:01:14;3.33;;;1.30;;
65572;SDS011;52214;50.940;13.996;2023-02-28T14:11:51;3.08;;;1.20;;
65572;SDS011;52214;50.940;13.996;2023-02-28T14:27:42;3.80;;;1.63;;
65572;SDS011;52214;50.940;13.996;2023-02-28T14:38:27;3.47;;;1.20;;
65572;SDS011;52214;50.940;13.996;2023-02-28T14:41:03;3.35;;;1.33;;
65572;SDS011;52214;50.940;13.996;2023-02-28T14:43:32;3.47;;;1.17;;
65572;SDS011;52214;50.940;13.996;2023-02-28T14:45:59;3.78;;;1.50;;
65572;SDS011;52214;50.940;13.996;2023-02-28T14:48:27;3.33;;;1.20;;
65572;SDS011;52214;50.940;13.996;2023-02-28T14:50:54;3.20;;;1.13;;
65572;SDS011;52214;50.940;13.996;2023-02-28T14:53:24;3.88;;;1.45;;
65572;SDS011;52214;50.940;13.996;2023-02-28T14:55:54;3.58;;;1.30;;
65572;SDS011;52214;50.940;13.996;2023-02-28T14:58:21;3.33;;;1.20;;
65572;SDS011;52214;50.940;13.996;2023-02-28T15:00:50;3.03;;;1.10;;
65572;SDS011;52214;50.940;13.996;2023-02-28T15:03:21;3.63;;;1.40;;
65572;SDS011;52214;50.940;13.996;2023-02-28T15:05:52;4.18;;;1.10;;
65572;SDS011;52214;50.940;13.996;2023-02-28T15:08:20;2.67;;;1.00;;
65572;SDS011;52214;50.940;13.996;2023-02-28T15:10:53;3.23;;;1.20;;
65572;SDS011;52214;50.940;13.996;2023-02-28T15:13:22;3.47;;;1.33;;
65572;SDS011;52214;50.940;13.996;2023-02-28T15:15:59;3.70;;;1.23;;
65572;SDS011;52214;50.940;13.996;2023-02-28T15:18:31;3.60;;;1.35;;
65572;SDS011;52214;50.940;13.996;2023-02-28T15:21:11;3.22;;;1.27;;
65572;SDS011;52214;50.940;13.996;2023-02-28T15:23:38;3.10;;;1.20;;
65572;SDS011;52214;50.940;13.996;2023-02-28T15:26:10;3.42;;;1.40;;
65572;SDS011;52214;50.940;13.996;2023-02-28T15:28:40;3.53;;;1.10;;
65572;SDS011;52214;50.940;13.996;2023-02-28T15:31:17;3.40;;;1.30;;
65572;SDS011;52214;50.940;13.996;2023-02-28T15:33:55;3.15;;;1.20;;
65572;SDS011;52214;50.940;13.996;2023-02-28T15:36:24;3.10;;;0.95;;
65572;SDS011;52214;50.940;13.996;2023-02-28T15:38:54;3.42;;;1.15;;
65572;SDS011;52214;50.940;13.996;2023-02-28T15:41:25;4.13;;;1.30;;
65572;SDS011;52214;50.940;13.996;2023-02-28T15:51:45;3.13;;;1.15;;
65572;SDS011;52214;50.940;13.996;2023-02-28T15:54:15;3.30;;;1.10;;
65572;SDS011;52214;50.940;13.996;2023-02-28T15:56:55;3.13;;;1.10;;
65572;SDS011;52214;50.940;13.996;2023-02-28T15:59:24;3.22;;;1.20;;
65572;SDS011;52214;50.940;13.996;2023-02-28T16:09:53;3.97;;;1.27;;
65572;SDS011;52214;50.940;13.996;2023-02-28T16:12:20;4.85;;;1.50;;
65572;SDS011;52214;50.940;13.996;2023-02-28T16:14:50;4.03;;;1.52;;
65572;SDS011;52214;50.940;13.996;2023-02-28T16:17:22;3.40;;;1.20;;
65572;SDS011;52214;50.940;13.996;2023-02-28T16:19:50;2.67;;;0.90;;
65572;SDS011;52214;50.940;13.996;2023-02-28T16:22:16;3.35;;;1.30;;
65572;SDS011;52214;50.940;13.996;2023-02-28T16:24:41;3.25;;;1.40;;
65572;SDS011;52214;50.940;13.996;2023-02-28T16:27:10;2.60;;;0.97;;
65572;SDS011;52214;50.940;13.996;2023-02-28T16:29:42;2.78;;;1.10;;
65572;SDS011;52214;50.940;13.996;2023-02-28T16:32:10;3.23;;;1.00;;
65572;SDS011;52214;50.940;13.996;2023-02-28T16:34:39;3.13;;;1.00;;
65572;SDS011;52214;50.940;13.996;2023-02-28T16:37:07;3.40;;;1.27;;
65572;SDS011;52214;50.940;13.996;2023-02-28T16:39:39;3.13;;;1.00;;
65572;SDS011;52214;50.940;13.996;2023-02-28T16:42:07;3.50;;;1.20;;
65572;SDS011;52214;50.940;13.996;2023-02-28T16:44:39;2.70;;;1.07;;
65572;SDS011;52214;50.940;13.996;2023-02-28T16:47:05;3.22;;;1.30;;
65572;SDS011;52214;50.940;13.996;2023-02-28T16:49:31;2.83;;;1.08;;
65572;SDS011;52214;50.940;13.996;2023-02-28T16:51:56;3.10;;;1.10;;
65572;SDS011;52214;50.940;13.996;2023-02-28T16:54:22;3.20;;;1.20;;
65572;SDS011;52214;50.940;13.996;2023-02-28T16:56:48;2.80;;;1.13;;
65572;SDS011;52214;50.940;13.996;2023-02-28T16:59:15;2.72;;;0.90;;
65572;SDS011;52214;50.940;13.996;2023-02-28T17:01:46;3.38;;;1.10;;
65572;SDS011;52214;50.940;13.996;2023-02-28T17:04:12;3.10;;;1.10;;
65572;SDS011;52214;50.940;13.996;2023-02-28T17:06:39;3.55;;;1.27;;
65572;SDS011;52214;50.940;13.996;2023-02-28T17:09:05;3.45;;;1.00;;
65572;SDS011;52214;50.940;13.996;2023-02-28T17:11:34;2.77;;;1.07;;
65572;SDS011;52214;50.940;13.996;2023-02-28T17:13:59;3.80;;;1.25;;
65572;SDS011;52214;50.940;13.996;2023-02-28T17:16:27;2.70;;;1.00;;
65572;SDS011;52214;50.940;13.996;2023-02-28T17:18:57;3.20;;;1.13;;
65572;SDS011;52214;50.940;13.996;2023-02-28T17:21:25;3.35;;;1.20;;
65572;SDS011;52214;50.940;13.996;2023-02-28T17:23:51;3.35;;;1.23;;
65572;SDS011;52214;50.940;13.996;2023-02-28T17:26:18;3.73;;;1.10;;
65572;SDS011;52214;50.940;13.996;2023-02-28T17:28:47;3.92;;;1.42;;
65572;SDS011;52214;50.940;13.996;2023-02-28T17:31:14;6.27;;;1.50;;
65572;SDS011;52214;50.940;13.996;2023-02-28T17:33:40;3.55;;;1.35;;
65572;SDS011;52214;50.940;13.996;2023-02-28T17:36:08;4.40;;;1.50;;
65572;SDS011;52214;50.940;13.996;2023-02-28T17:38:39;6.03;;;1.70;;
65572;SDS011;52214;50.940;13.996;2023-02-28T17:41:04;8.40;;;2.50;;
65572;SDS011;52214;50.940;13.996;2023-02-28T17:43:30;12.82;;;4.43;;
65572;SDS011;52214;50.940;13.996;2023-02-28T17:45:55;26.95;;;8.73;;
65572;SDS011;52214;50.940;13.996;2023-02-28T17:48:23;40.63;;;13.50;;
65572;SDS011;52214;50.940;13.996;2023-02-28T17:53:09;71.30;;;22.10;;
65572;SDS011;52214;50.940;13.996;2023-02-28T17:55:51;195.97;;;51.80;;
65572;SDS011;52214;50.940;13.996;2023-02-28T17:58:28;165.05;;;47.83;;